sensor_id;sensor_type;location;lat;lon;timestamp;P1;durP1;ratioP1;P2;durP2;ratioP2
23884;SDS011;12123;53.088;7.392;2022-11-24T00:00:47;37.85;;;15.32;;
23884;SDS011;12123;53.088;7.392;2022-11-24T00:03:14;38.50;;;15.05;;
23884;SDS011;12123;53.088;7.392;2022-11-24T00:05:42;29.58;;;14.27;;
23884;SDS011;12123;53.088;7.392;2022-11-24T00:08:09;30.02;;;14.43;;
23884;SDS011;12123;53.088;7.392;2022-11-24T00:10:36;38.92;;;15.93;;
23884;SDS011;12123;53.088;7.392;2022-11-24T00:13:03;30.40;;;14.50;;
23884;SDS011;12123;53.088;7.392;2022-11-24T00:15:31;29.42;;;14.52;;
23884;SDS011;12123;53.088;7.392;2022-11-24T00:17:58;30.85;;;14.95;;
23884;SDS011;12123;53.088;7.392;2022-11-24T00:20:25;26.85;;;14.30;;
23884;SDS011;12123;53.088;7.392;2022-11-24T00:22:52;35.22;;;15.40;;
23884;SDS011;12123;53.088;7.392;2022-11-24T00:25:19;35.13;;;15.25;;
23884;SDS011;12123;53.088;7.392;2022-11-24T00:27:46;34.53;;;15.18;;
23884;SDS011;12123;53.088;7.392;2022-11-24T00:30:14;32.30;;;15.43;;
23884;SDS011;12123;53.088;7.392;2022-11-24T00:32:41;31.25;;;14.73;;
23884;SDS011;12123;53.088;7.392;2022-11-24T00:35:08;36.38;;;14.65;;
23884;SDS011;12123;53.088;7.392;2022-11-24T00:37:35;31.25;;;14.63;;
23884;SDS011;12123;53.088;7.392;2022-11-24T00:40:03;31.83;;;13.88;;
23884;SDS011;12123;53.088;7.392;2022-11-24T00:42:30;28.35;;;13.82;;
23884;SDS011;12123;53.088;7.392;2022-11-24T00:44:57;33.55;;;14.23;;
23884;SDS011;12123;53.088;7.392;2022-11-24T00:47:24;29.83;;;12.77;;
23884;SDS011;12123;53.088;7.392;2022-11-24T00:49:53;30.50;;;14.27;;
23884;SDS011;12123;53.088;7.392;2022-11-24T00:52:21;37.70;;;14.32;;
23884;SDS011;12123;53.088;7.392;2022-11-24T00:54:48;30.05;;;12.98;;
23884;SDS011;12123;53.088;7.392;2022-11-24T00:57:15;28.30;;;13.57;;
23884;SDS011;12123;53.088;7.392;2022-11-24T00:59:42;29.67;;;12.70;;
23884;SDS011;12123;53.088;7.392;2022-11-24T01:02:09;32.90;;;12.90;;
23884;SDS011;12123;53.088;7.392;2022-11-24T01:04:37;26.65;;;12.10;;
23884;SDS011;12123;53.088;7.392;2022-11-24T01:07:04;27.90;;;11.80;;
23884;SDS011;12123;53.088;7.392;2022-11-24T01:09:31;28.63;;;12.98;;
23884;SDS011;12123;53.088;7.392;2022-11-24T01:11:59;27.88;;;13.55;;
23884;SDS011;12123;53.088;7.392;2022-11-24T01:14:29;31.30;;;13.30;;
23884;SDS011;12123;53.088;7.392;2022-11-24T01:16:58;30.80;;;12.75;;
23884;SDS011;12123;53.088;7.392;2022-11-24T01:19:25;32.80;;;11.80;;
23884;SDS011;12123;53.088;7.392;2022-11-24T01:21:52;29.10;;;12.75;;
23884;SDS011;12123;53.088;7.392;2022-11-24T01:24:20;27.55;;;12.00;;
23884;SDS011;12123;53.088;7.392;2022-11-24T01:26:47;35.72;;;12.90;;
23884;SDS011;12123;53.088;7.392;2022-11-24T01:29:14;34.75;;;11.85;;
23884;SDS011;12123;53.088;7.392;2022-11-24T01:31:41;30.50;;;11.18;;
23884;SDS011;12123;53.088;7.392;2022-11-24T01:34:08;33.85;;;12.13;;
23884;SDS011;12123;53.088;7.392;2022-11-24T01:36:36;31.67;;;10.85;;
23884;SDS011;12123;53.088;7.392;2022-11-24T01:39:03;38.05;;;12.10;;
23884;SDS011;12123;53.088;7.392;2022-11-24T01:41:30;32.55;;;11.85;;
23884;SDS011;12123;53.088;7.392;2022-11-24T01:43:59;31.40;;;11.35;;
23884;SDS011;12123;53.088;7.392;2022-11-24T01:51:31;30.58;;;10.35;;
23884;SDS011;12123;53.088;7.392;2022-11-24T01:54:13;30.52;;;10.25;;
23884;SDS011;12123;53.088;7.392;2022-11-24T01:56:42;27.63;;;10.93;;
23884;SDS011;12123;53.088;7.392;2022-11-24T01:59:11;30.73;;;11.13;;
23884;SDS011;12123;53.088;7.392;2022-11-24T02:01:40;28.73;;;9.68;;
23884;SDS011;12123;53.088;7.392;2022-11-24T02:04:09;33.45;;;10.75;;
23884;SDS011;12123;53.088;7.392;2022-11-24T02:06:38;30.65;;;9.60;;
23884;SDS011;12123;53.088;7.392;2022-11-24T02:11:44;24.30;;;9.48;;
23884;SDS011;12123;53.088;7.392;2022-11-24T02:14:12;33.78;;;9.75;;
23884;SDS011;12123;53.088;7.392;2022-11-24T02:16:41;24.98;;;8.75;;
23884;SDS011;12123;53.088;7.392;2022-11-24T02:19:15;37.10;;;9.43;;
23884;SDS011;12123;53.088;7.392;2022-11-24T02:21:44;33.65;;;9.77;;
23884;SDS011;12123;53.088;7.392;2022-11-24T02:26:45;32.78;;;8.80;;
23884;SDS011;12123;53.088;7.392;2022-11-24T02:29:13;34.00;;;9.90;;
23884;SDS011;12123;53.088;7.392;2022-11-24T02:31:42;24.73;;;7.80;;
23884;SDS011;12123;53.088;7.392;2022-11-24T02:34:10;24.83;;;8.35;;
23884;SDS011;12123;53.088;7.392;2022-11-24T02:36:37;24.30;;;7.65;;
23884;SDS011;12123;53.088;7.392;2022-11-24T02:39:08;32.90;;;7.63;;
23884;SDS011;12123;53.088;7.392;2022-11-24T02:41:35;22.25;;;7.95;;
23884;SDS011;12123;53.088;7.392;2022-11-24T02:44:03;29.13;;;8.13;;
23884;SDS011;12123;53.088;7.392;2022-11-24T02:46:30;29.42;;;8.32;;
23884;SDS011;12123;53.088;7.392;2022-11-24T02:48:58;33.85;;;7.50;;
23884;SDS011;12123;53.088;7.392;2022-11-24T02:51:25;34.58;;;7.80;;
23884;SDS011;12123;53.088;7.392;2022-11-24T02:53:53;27.98;;;7.55;;
23884;SDS011;12123;53.088;7.392;2022-11-24T02:56:20;31.50;;;9.15;;
23884;SDS011;12123;53.088;7.392;2022-11-24T02:58:47;35.83;;;7.28;;
23884;SDS011;12123;53.088;7.392;2022-11-24T03:01:14;29.60;;;7.00;;
23884;SDS011;12123;53.088;7.392;2022-11-24T03:03:41;21.92;;;7.18;;
23884;SDS011;12123;53.088;7.392;2022-11-24T03:06:09;36.35;;;8.07;;
23884;SDS011;12123;53.088;7.392;2022-11-24T03:08:36;29.65;;;8.48;;
23884;SDS011;12123;53.088;7.392;2022-11-24T03:11:03;34.08;;;8.35;;
23884;SDS011;12123;53.088;7.392;2022-11-24T03:13:30;37.58;;;7.50;;
23884;SDS011;12123;53.088;7.392;2022-11-24T03:15:58;27.83;;;6.80;;
23884;SDS011;12123;53.088;7.392;2022-11-24T03:18:25;25.73;;;6.55;;
23884;SDS011;12123;53.088;7.392;2022-11-24T03:20:52;32.38;;;7.57;;
23884;SDS011;12123;53.088;7.392;2022-11-24T03:23:24;31.67;;;7.75;;
23884;SDS011;12123;53.088;7.392;2022-11-24T03:25:52;29.70;;;6.32;;
23884;SDS011;12123;53.088;7.392;2022-11-24T03:28:20;24.27;;;6.95;;
23884;SDS011;12123;53.088;7.392;2022-11-24T03:30:47;25.88;;;7.00;;
23884;SDS011;12123;53.088;7.392;2022-11-24T03:33:15;29.02;;;8.02;;
23884;SDS011;12123;53.088;7.392;2022-11-24T03:35:42;31.48;;;6.65;;
23884;SDS011;12123;53.088;7.392;2022-11-24T03:38:09;40.35;;;7.13;;
23884;SDS011;12123;53.088;7.392;2022-11-24T03:40:36;25.23;;;6.60;;
23884;SDS011;12123;53.088;7.392;2022-11-24T03:43:03;22.70;;;6.28;;
23884;SDS011;12123;53.088;7.392;2022-11-24T03:45:30;28.80;;;7.57;;
23884;SDS011;12123;53.088;7.392;2022-11-24T03:48:14;28.92;;;6.00;;
23884;SDS011;12123;53.088;7.392;2022-11-24T03:50:41;27.52;;;6.45;;
23884;SDS011;12123;53.088;7.392;2022-11-24T03:53:09;29.38;;;5.82;;
23884;SDS011;12123;53.088;7.392;2022-11-24T03:55:36;33.75;;;6.72;;
23884;SDS011;12123;53.088;7.392;2022-11-24T03:58:03;31.17;;;6.20;;
23884;SDS011;12123;53.088;7.392;2022-11-24T04:00:30;28.58;;;5.57;;
23884;SDS011;12123;53.088;7.392;2022-11-24T04:02:57;23.98;;;6.03;;
23884;SDS011;12123;53.088;7.392;2022-11-24T04:05:25;27.45;;;6.40;;
23884;SDS011;12123;53.088;7.392;2022-11-24T04:07:55;24.70;;;6.00;;
23884;SDS011;12123;53.088;7.392;2022-11-24T04:10:23;30.17;;;7.50;;
23884;SDS011;12123;53.088;7.392;2022-11-24T04:12:53;25.95;;;6.65;;
23884;SDS011;12123;53.088;7.392;2022-11-24T04:15:21;34.97;;;6.60;;
23884;SDS011;12123;53.088;7.392;2022-11-24T04:17:48;23.42;;;5.53;;
23884;SDS011;12123;53.088;7.392;2022-11-24T04:20:16;29.95;;;5.80;;
23884;SDS011;12123;53.088;7.392;2022-11-24T04:22:43;24.73;;;5.60;;
23884;SDS011;12123;53.088;7.392;2022-11-24T04:25:10;26.95;;;5.68;;
23884;SDS011;12123;53.088;7.392;2022-11-24T04:27:37;29.13;;;6.07;;
23884;SDS011;12123;53.088;7.392;2022-11-24T04:30:05;38.35;;;6.68;;
23884;SDS011;12123;53.088;7.392;2022-11-24T04:32:32;30.25;;;6.32;;
23884;SDS011;12123;53.088;7.392;2022-11-24T04:34:59;35.40;;;6.18;;
23884;SDS011;12123;53.088;7.392;2022-11-24T04:37:27;28.70;;;6.07;;
23884;SDS011;12123;53.088;7.392;2022-11-24T04:39:54;24.35;;;5.53;;
23884;SDS011;12123;53.088;7.392;2022-11-24T04:42:21;23.83;;;5.40;;
23884;SDS011;12123;53.088;7.392;2022-11-24T04:44:48;27.95;;;6.60;;
23884;SDS011;12123;53.088;7.392;2022-11-24T04:47:16;32.70;;;5.65;;
23884;SDS011;12123;53.088;7.392;2022-11-24T04:49:45;25.33;;;5.18;;
23884;SDS011;12123;53.088;7.392;2022-11-24T04:52:12;30.98;;;5.38;;
23884;SDS011;12123;53.088;7.392;2022-11-24T04:54:39;24.95;;;5.63;;
23884;SDS011;12123;53.088;7.392;2022-11-24T04:57:08;25.73;;;5.00;;
23884;SDS011;12123;53.088;7.392;2022-11-24T04:59:37;31.35;;;4.47;;
23884;SDS011;12123;53.088;7.392;2022-11-24T05:02:04;34.45;;;5.30;;
23884;SDS011;12123;53.088;7.392;2022-11-24T05:04:31;26.42;;;4.90;;
23884;SDS011;12123;53.088;7.392;2022-11-24T05:06:59;23.20;;;5.15;;
23884;SDS011;12123;53.088;7.392;2022-11-24T05:09:26;23.25;;;4.72;;
23884;SDS011;12123;53.088;7.392;2022-11-24T05:12:13;26.60;;;5.35;;
23884;SDS011;12123;53.088;7.392;2022-11-24T05:14:40;21.05;;;5.90;;
23884;SDS011;12123;53.088;7.392;2022-11-24T05:17:07;16.83;;;4.28;;
23884;SDS011;12123;53.088;7.392;2022-11-24T05:19:34;27.30;;;4.38;;
23884;SDS011;12123;53.088;7.392;2022-11-24T05:22:01;19.38;;;4.57;;
23884;SDS011;12123;53.088;7.392;2022-11-24T05:24:29;34.55;;;5.82;;
23884;SDS011;12123;53.088;7.392;2022-11-24T05:26:56;29.52;;;5.55;;
23884;SDS011;12123;53.088;7.392;2022-11-24T05:29:24;28.05;;;4.57;;
23884;SDS011;12123;53.088;7.392;2022-11-24T05:31:51;24.00;;;5.00;;
23884;SDS011;12123;53.088;7.392;2022-11-24T05:34:18;16.35;;;4.15;;
23884;SDS011;12123;53.088;7.392;2022-11-24T05:36:46;26.98;;;5.05;;
23884;SDS011;12123;53.088;7.392;2022-11-24T05:39:19;19.63;;;4.10;;
23884;SDS011;12123;53.088;7.392;2022-11-24T05:41:46;27.05;;;5.53;;
23884;SDS011;12123;53.088;7.392;2022-11-24T05:44:14;27.27;;;4.45;;
23884;SDS011;12123;53.088;7.392;2022-11-24T05:46:41;29.38;;;4.88;;
23884;SDS011;12123;53.088;7.392;2022-11-24T05:49:08;23.17;;;4.10;;
23884;SDS011;12123;53.088;7.392;2022-11-24T05:51:35;20.35;;;4.55;;
23884;SDS011;12123;53.088;7.392;2022-11-24T05:54:02;23.20;;;3.72;;
23884;SDS011;12123;53.088;7.392;2022-11-24T05:56:30;23.13;;;4.03;;
23884;SDS011;12123;53.088;7.392;2022-11-24T05:58:57;28.40;;;4.95;;
23884;SDS011;12123;53.088;7.392;2022-11-24T06:01:24;24.90;;;5.50;;
23884;SDS011;12123;53.088;7.392;2022-11-24T06:03:51;29.63;;;5.03;;
23884;SDS011;12123;53.088;7.392;2022-11-24T06:06:19;23.67;;;4.45;;
23884;SDS011;12123;53.088;7.392;2022-11-24T06:08:46;20.92;;;4.75;;
23884;SDS011;12123;53.088;7.392;2022-11-24T06:11:13;31.48;;;4.65;;
23884;SDS011;12123;53.088;7.392;2022-11-24T06:13:43;29.13;;;4.95;;
23884;SDS011;12123;53.088;7.392;2022-11-24T06:16:11;18.13;;;3.83;;
23884;SDS011;12123;53.088;7.392;2022-11-24T06:18:39;27.05;;;4.88;;
23884;SDS011;12123;53.088;7.392;2022-11-24T06:21:06;28.67;;;4.88;;
23884;SDS011;12123;53.088;7.392;2022-11-24T06:23:36;26.17;;;5.05;;
23884;SDS011;12123;53.088;7.392;2022-11-24T06:26:04;34.00;;;5.15;;
23884;SDS011;12123;53.088;7.392;2022-11-24T06:28:31;17.80;;;4.13;;
23884;SDS011;12123;53.088;7.392;2022-11-24T06:30:59;21.65;;;3.97;;
23884;SDS011;12123;53.088;7.392;2022-11-24T06:33:28;31.50;;;4.85;;
23884;SDS011;12123;53.088;7.392;2022-11-24T06:36:03;21.70;;;4.65;;
23884;SDS011;12123;53.088;7.392;2022-11-24T06:38:31;29.02;;;5.95;;
23884;SDS011;12123;53.088;7.392;2022-11-24T06:40:59;16.77;;;4.05;;
23884;SDS011;12123;53.088;7.392;2022-11-24T06:43:27;29.02;;;4.25;;
23884;SDS011;12123;53.088;7.392;2022-11-24T06:45:54;25.27;;;4.38;;
23884;SDS011;12123;53.088;7.392;2022-11-24T06:48:22;25.98;;;4.93;;
23884;SDS011;12123;53.088;7.392;2022-11-24T06:50:49;23.05;;;4.47;;
23884;SDS011;12123;53.088;7.392;2022-11-24T06:53:16;30.30;;;5.05;;
23884;SDS011;12123;53.088;7.392;2022-11-24T06:55:44;30.95;;;5.88;;
23884;SDS011;12123;53.088;7.392;2022-11-24T06:58:11;26.08;;;4.60;;
23884;SDS011;12123;53.088;7.392;2022-11-24T07:00:39;28.35;;;3.88;;
23884;SDS011;12123;53.088;7.392;2022-11-24T07:03:06;22.15;;;5.35;;
23884;SDS011;12123;53.088;7.392;2022-11-24T07:05:33;32.78;;;5.07;;
23884;SDS011;12123;53.088;7.392;2022-11-24T07:08:00;23.98;;;4.70;;
23884;SDS011;12123;53.088;7.392;2022-11-24T07:10:28;28.42;;;5.47;;
23884;SDS011;12123;53.088;7.392;2022-11-24T07:12:55;22.42;;;4.07;;
23884;SDS011;12123;53.088;7.392;2022-11-24T07:15:22;32.47;;;5.35;;
23884;SDS011;12123;53.088;7.392;2022-11-24T07:17:49;29.95;;;4.70;;
23884;SDS011;12123;53.088;7.392;2022-11-24T07:20:16;25.23;;;4.47;;
23884;SDS011;12123;53.088;7.392;2022-11-24T07:22:43;36.45;;;4.93;;
23884;SDS011;12123;53.088;7.392;2022-11-24T07:25:11;18.67;;;4.00;;
23884;SDS011;12123;53.088;7.392;2022-11-24T07:27:39;21.45;;;4.57;;
23884;SDS011;12123;53.088;7.392;2022-11-24T07:30:07;26.02;;;4.13;;
23884;SDS011;12123;53.088;7.392;2022-11-24T07:32:34;27.98;;;4.63;;
23884;SDS011;12123;53.088;7.392;2022-11-24T07:35:01;24.38;;;5.50;;
23884;SDS011;12123;53.088;7.392;2022-11-24T07:37:28;35.22;;;6.68;;
23884;SDS011;12123;53.088;7.392;2022-11-24T07:39:57;17.83;;;4.75;;
23884;SDS011;12123;53.088;7.392;2022-11-24T07:42:24;28.17;;;5.30;;
23884;SDS011;12123;53.088;7.392;2022-11-24T07:44:51;26.02;;;4.43;;
23884;SDS011;12123;53.088;7.392;2022-11-24T07:47:18;25.90;;;5.18;;
23884;SDS011;12123;53.088;7.392;2022-11-24T07:49:46;22.77;;;4.50;;
23884;SDS011;12123;53.088;7.392;2022-11-24T07:52:13;26.90;;;5.35;;
23884;SDS011;12123;53.088;7.392;2022-11-24T07:54:40;29.48;;;4.85;;
23884;SDS011;12123;53.088;7.392;2022-11-24T07:57:07;25.33;;;4.45;;
23884;SDS011;12123;53.088;7.392;2022-11-24T07:59:34;26.77;;;6.05;;
23884;SDS011;12123;53.088;7.392;2022-11-24T08:02:01;22.05;;;4.45;;
23884;SDS011;12123;53.088;7.392;2022-11-24T08:04:29;28.10;;;4.45;;
23884;SDS011;12123;53.088;7.392;2022-11-24T08:06:56;25.73;;;4.80;;
23884;SDS011;12123;53.088;7.392;2022-11-24T08:09:23;31.35;;;5.55;;
23884;SDS011;12123;53.088;7.392;2022-11-24T08:11:51;28.95;;;5.53;;
23884;SDS011;12123;53.088;7.392;2022-11-24T08:14:18;29.02;;;5.70;;
23884;SDS011;12123;53.088;7.392;2022-11-24T08:16:46;21.08;;;4.63;;
23884;SDS011;12123;53.088;7.392;2022-11-24T08:19:13;17.58;;;3.60;;
23884;SDS011;12123;53.088;7.392;2022-11-24T08:21:40;25.27;;;4.93;;
23884;SDS011;12123;53.088;7.392;2022-11-24T08:24:07;28.38;;;5.30;;
23884;SDS011;12123;53.088;7.392;2022-11-24T08:26:35;24.70;;;5.78;;
23884;SDS011;12123;53.088;7.392;2022-11-24T08:29:02;26.58;;;5.35;;
23884;SDS011;12123;53.088;7.392;2022-11-24T08:31:29;28.77;;;4.63;;
23884;SDS011;12123;53.088;7.392;2022-11-24T08:34:01;23.83;;;5.22;;
23884;SDS011;12123;53.088;7.392;2022-11-24T08:36:29;27.45;;;5.10;;
23884;SDS011;12123;53.088;7.392;2022-11-24T08:38:57;34.22;;;7.10;;
23884;SDS011;12123;53.088;7.392;2022-11-24T08:41:25;27.77;;;5.28;;
23884;SDS011;12123;53.088;7.392;2022-11-24T08:43:53;20.85;;;5.00;;
23884;SDS011;12123;53.088;7.392;2022-11-24T08:46:20;22.73;;;6.05;;
23884;SDS011;12123;53.088;7.392;2022-11-24T08:48:50;23.55;;;5.85;;
23884;SDS011;12123;53.088;7.392;2022-11-24T08:51:18;28.38;;;8.13;;
23884;SDS011;12123;53.088;7.392;2022-11-24T08:53:46;35.13;;;5.90;;
23884;SDS011;12123;53.088;7.392;2022-11-24T08:56:13;24.63;;;5.20;;
23884;SDS011;12123;53.088;7.392;2022-11-24T08:58:40;22.23;;;7.43;;
23884;SDS011;12123;53.088;7.392;2022-11-24T09:01:12;26.83;;;5.35;;
23884;SDS011;12123;53.088;7.392;2022-11-24T09:03:40;24.92;;;5.10;;
23884;SDS011;12123;53.088;7.392;2022-11-24T09:06:16;30.42;;;5.72;;
23884;SDS011;12123;53.088;7.392;2022-11-24T09:08:43;26.70;;;5.93;;
23884;SDS011;12123;53.088;7.392;2022-11-24T09:11:12;24.13;;;5.50;;
23884;SDS011;12123;53.088;7.392;2022-11-24T09:13:40;22.30;;;6.28;;
23884;SDS011;12123;53.088;7.392;2022-11-24T09:16:11;33.95;;;6.07;;
23884;SDS011;12123;53.088;7.392;2022-11-24T09:18:39;25.55;;;5.28;;
23884;SDS011;12123;53.088;7.392;2022-11-24T09:21:11;23.38;;;5.05;;
23884;SDS011;12123;53.088;7.392;2022-11-24T09:23:39;18.70;;;5.00;;
23884;SDS011;12123;53.088;7.392;2022-11-24T09:26:07;26.10;;;5.18;;
23884;SDS011;12123;53.088;7.392;2022-11-24T09:28:35;24.40;;;6.32;;
23884;SDS011;12123;53.088;7.392;2022-11-24T09:31:04;25.48;;;4.47;;
23884;SDS011;12123;53.088;7.392;2022-11-24T09:33:31;22.30;;;5.05;;
23884;SDS011;12123;53.088;7.392;2022-11-24T09:35:59;19.15;;;4.68;;
23884;SDS011;12123;53.088;7.392;2022-11-24T09:38:26;17.92;;;4.05;;
23884;SDS011;12123;53.088;7.392;2022-11-24T09:40:54;21.17;;;4.40;;
23884;SDS011;12123;53.088;7.392;2022-11-24T09:46:07;25.42;;;4.85;;
23884;SDS011;12123;53.088;7.392;2022-11-24T09:48:38;16.90;;;4.45;;
23884;SDS011;12123;53.088;7.392;2022-11-24T09:51:09;12.93;;;4.60;;
23884;SDS011;12123;53.088;7.392;2022-11-24T09:53:38;19.63;;;4.80;;
23884;SDS011;12123;53.088;7.392;2022-11-24T10:01:21;22.88;;;4.07;;
23884;SDS011;12123;53.088;7.392;2022-11-24T10:03:51;20.00;;;4.28;;
23884;SDS011;12123;53.088;7.392;2022-11-24T10:09:06;16.52;;;4.00;;
23884;SDS011;12123;53.088;7.392;2022-11-24T10:11:45;22.27;;;4.05;;
23884;SDS011;12123;53.088;7.392;2022-11-24T10:14:30;12.88;;;3.30;;
23884;SDS011;12123;53.088;7.392;2022-11-24T10:19:49;19.27;;;4.03;;
23884;SDS011;12123;53.088;7.392;2022-11-24T10:27:36;20.05;;;3.97;;
23884;SDS011;12123;53.088;7.392;2022-11-24T10:30:12;14.32;;;3.78;;
23884;SDS011;12123;53.088;7.392;2022-11-24T10:32:43;17.75;;;3.78;;
23884;SDS011;12123;53.088;7.392;2022-11-24T10:35:21;13.57;;;3.92;;
23884;SDS011;12123;53.088;7.392;2022-11-24T10:40:58;10.23;;;3.70;;
23884;SDS011;12123;53.088;7.392;2022-11-24T10:43:26;12.75;;;2.97;;
23884;SDS011;12123;53.088;7.392;2022-11-24T10:45:54;10.23;;;3.78;;
23884;SDS011;12123;53.088;7.392;2022-11-24T10:48:25;14.68;;;3.53;;
23884;SDS011;12123;53.088;7.392;2022-11-24T10:50:54;20.25;;;3.55;;
23884;SDS011;12123;53.088;7.392;2022-11-24T10:53:24;11.98;;;3.45;;
23884;SDS011;12123;53.088;7.392;2022-11-24T11:00:50;12.45;;;3.42;;
23884;SDS011;12123;53.088;7.392;2022-11-24T11:03:21;15.60;;;3.65;;
23884;SDS011;12123;53.088;7.392;2022-11-24T11:08:20;15.70;;;3.13;;
23884;SDS011;12123;53.088;7.392;2022-11-24T11:10:49;12.63;;;3.53;;
23884;SDS011;12123;53.088;7.392;2022-11-24T11:13:24;9.35;;;2.92;;
23884;SDS011;12123;53.088;7.392;2022-11-24T11:15:52;13.35;;;3.00;;
23884;SDS011;12123;53.088;7.392;2022-11-24T11:18:19;13.02;;;3.08;;
23884;SDS011;12123;53.088;7.392;2022-11-24T11:20:48;10.80;;;2.55;;
23884;SDS011;12123;53.088;7.392;2022-11-24T11:23:26;10.48;;;3.03;;
23884;SDS011;12123;53.088;7.392;2022-11-24T11:28:39;10.73;;;2.63;;
23884;SDS011;12123;53.088;7.392;2022-11-24T11:31:07;10.15;;;2.65;;
23884;SDS011;12123;53.088;7.392;2022-11-24T11:36:46;9.55;;;2.30;;
23884;SDS011;12123;53.088;7.392;2022-11-24T11:41:45;5.57;;;2.10;;
23884;SDS011;12123;53.088;7.392;2022-11-24T11:44:16;11.80;;;2.45;;
23884;SDS011;12123;53.088;7.392;2022-11-24T11:46:47;9.77;;;3.03;;
23884;SDS011;12123;53.088;7.392;2022-11-24T11:49:15;9.27;;;2.85;;
23884;SDS011;12123;53.088;7.392;2022-11-24T11:51:55;9.73;;;3.15;;
23884;SDS011;12123;53.088;7.392;2022-11-24T11:57:21;12.73;;;3.08;;
23884;SDS011;12123;53.088;7.392;2022-11-24T12:10:45;13.30;;;3.88;;
23884;SDS011;12123;53.088;7.392;2022-11-24T12:13:32;11.00;;;3.65;;
23884;SDS011;12123;53.088;7.392;2022-11-24T12:24:12;8.77;;;3.22;;
23884;SDS011;12123;53.088;7.392;2022-11-24T12:26:45;9.27;;;3.70;;
23884;SDS011;12123;53.088;7.392;2022-11-24T12:37:23;11.43;;;3.72;;
23884;SDS011;12123;53.088;7.392;2022-11-24T12:47:38;10.00;;;3.88;;
23884;SDS011;12123;53.088;7.392;2022-11-24T12:52:48;6.93;;;3.35;;
23884;SDS011;12123;53.088;7.392;2022-11-24T12:55:23;10.60;;;3.80;;
23884;SDS011;12123;53.088;7.392;2022-11-24T12:57:57;7.65;;;3.92;;
23884;SDS011;12123;53.088;7.392;2022-11-24T13:08:20;9.65;;;4.45;;
23884;SDS011;12123;53.088;7.392;2022-11-24T13:10:48;10.65;;;4.50;;
23884;SDS011;12123;53.088;7.392;2022-11-24T13:13:25;10.48;;;4.40;;
23884;SDS011;12123;53.088;7.392;2022-11-24T13:18:59;12.82;;;4.95;;
23884;SDS011;12123;53.088;7.392;2022-11-24T13:26:45;14.30;;;5.40;;
23884;SDS011;12123;53.088;7.392;2022-11-24T13:31:54;16.95;;;5.70;;
23884;SDS011;12123;53.088;7.392;2022-11-24T13:53:37;15.50;;;7.82;;
23884;SDS011;12123;53.088;7.392;2022-11-24T13:56:21;19.17;;;7.68;;
23884;SDS011;12123;53.088;7.392;2022-11-24T13:58:55;15.32;;;6.40;;
23884;SDS011;12123;53.088;7.392;2022-11-24T14:01:31;22.58;;;7.22;;
23884;SDS011;12123;53.088;7.392;2022-11-24T14:06:52;16.48;;;6.55;;
23884;SDS011;12123;53.088;7.392;2022-11-24T14:14:38;16.83;;;7.18;;
23884;SDS011;12123;53.088;7.392;2022-11-24T14:19:33;18.40;;;8.13;;
23884;SDS011;12123;53.088;7.392;2022-11-24T14:22:00;13.43;;;7.82;;
23884;SDS011;12123;53.088;7.392;2022-11-24T14:24:31;19.63;;;7.55;;
23884;SDS011;12123;53.088;7.392;2022-11-24T14:27:10;17.15;;;7.93;;
23884;SDS011;12123;53.088;7.392;2022-11-24T14:29:54;15.77;;;8.00;;
23884;SDS011;12123;53.088;7.392;2022-11-24T14:32:22;14.90;;;7.85;;
23884;SDS011;12123;53.088;7.392;2022-11-24T14:34:49;17.10;;;7.40;;
23884;SDS011;12123;53.088;7.392;2022-11-24T14:37:17;19.70;;;8.30;;
23884;SDS011;12123;53.088;7.392;2022-11-24T14:39:45;22.67;;;8.70;;
23884;SDS011;12123;53.088;7.392;2022-11-24T14:42:22;23.63;;;8.13;;
23884;SDS011;12123;53.088;7.392;2022-11-24T14:49:45;19.95;;;8.75;;
23884;SDS011;12123;53.088;7.392;2022-11-24T14:52:13;22.77;;;8.18;;
23884;SDS011;12123;53.088;7.392;2022-11-24T14:54:59;16.75;;;8.50;;
23884;SDS011;12123;53.088;7.392;2022-11-24T14:57:46;18.83;;;8.45;;
23884;SDS011;12123;53.088;7.392;2022-11-24T15:00:15;23.17;;;9.32;;
23884;SDS011;12123;53.088;7.392;2022-11-24T15:05:13;24.20;;;8.20;;
23884;SDS011;12123;53.088;7.392;2022-11-24T15:07:42;22.23;;;9.10;;
23884;SDS011;12123;53.088;7.392;2022-11-24T15:10:17;20.45;;;9.02;;
23884;SDS011;12123;53.088;7.392;2022-11-24T15:12:52;21.25;;;9.18;;
23884;SDS011;12123;53.088;7.392;2022-11-24T15:17:51;20.27;;;8.10;;
23884;SDS011;12123;53.088;7.392;2022-11-24T15:20:22;19.42;;;8.75;;
23884;SDS011;12123;53.088;7.392;2022-11-24T15:22:50;23.88;;;8.77;;
23884;SDS011;12123;53.088;7.392;2022-11-24T15:25:37;18.05;;;8.30;;
23884;SDS011;12123;53.088;7.392;2022-11-24T15:28:06;22.92;;;9.35;;
23884;SDS011;12123;53.088;7.392;2022-11-24T15:30:34;20.88;;;9.02;;
23884;SDS011;12123;53.088;7.392;2022-11-24T15:33:01;24.20;;;9.68;;
23884;SDS011;12123;53.088;7.392;2022-11-24T15:35:30;22.02;;;8.48;;
23884;SDS011;12123;53.088;7.392;2022-11-24T15:37:57;18.92;;;8.45;;
23884;SDS011;12123;53.088;7.392;2022-11-24T15:40:24;24.23;;;8.63;;
23884;SDS011;12123;53.088;7.392;2022-11-24T15:42:52;22.15;;;9.20;;
23884;SDS011;12123;53.088;7.392;2022-11-24T15:45:21;32.83;;;10.38;;
23884;SDS011;12123;53.088;7.392;2022-11-24T15:47:49;20.30;;;9.57;;
23884;SDS011;12123;53.088;7.392;2022-11-24T15:50:16;23.98;;;9.48;;
23884;SDS011;12123;53.088;7.392;2022-11-24T15:52:43;23.70;;;9.88;;
23884;SDS011;12123;53.088;7.392;2022-11-24T15:55:20;28.80;;;10.57;;
23884;SDS011;12123;53.088;7.392;2022-11-24T15:57:48;27.10;;;9.43;;
23884;SDS011;12123;53.088;7.392;2022-11-24T16:00:16;18.77;;;9.10;;
23884;SDS011;12123;53.088;7.392;2022-11-24T16:02:43;29.35;;;10.27;;
23884;SDS011;12123;53.088;7.392;2022-11-24T16:05:11;26.92;;;10.25;;
23884;SDS011;12123;53.088;7.392;2022-11-24T16:07:38;23.30;;;10.85;;
23884;SDS011;12123;53.088;7.392;2022-11-24T16:10:06;28.92;;;10.80;;
23884;SDS011;12123;53.088;7.392;2022-11-24T16:12:34;27.38;;;10.23;;
23884;SDS011;12123;53.088;7.392;2022-11-24T16:15:01;27.20;;;10.25;;
23884;SDS011;12123;53.088;7.392;2022-11-24T16:17:28;28.23;;;10.20;;
23884;SDS011;12123;53.088;7.392;2022-11-24T16:19:55;19.63;;;10.13;;
23884;SDS011;12123;53.088;7.392;2022-11-24T16:22:26;21.42;;;9.98;;
23884;SDS011;12123;53.088;7.392;2022-11-24T16:24:53;21.55;;;9.98;;
23884;SDS011;12123;53.088;7.392;2022-11-24T16:27:20;26.13;;;10.43;;
23884;SDS011;12123;53.088;7.392;2022-11-24T16:29:47;29.42;;;12.23;;
23884;SDS011;12123;53.088;7.392;2022-11-24T16:32:14;30.50;;;13.43;;
23884;SDS011;12123;53.088;7.392;2022-11-24T16:34:41;30.77;;;12.60;;
23884;SDS011;12123;53.088;7.392;2022-11-24T16:37:09;28.42;;;11.70;;
23884;SDS011;12123;53.088;7.392;2022-11-24T16:39:36;43.35;;;17.02;;
23884;SDS011;12123;53.088;7.392;2022-11-24T16:42:03;41.25;;;16.17;;
23884;SDS011;12123;53.088;7.392;2022-11-24T16:44:30;35.65;;;14.65;;
23884;SDS011;12123;53.088;7.392;2022-11-24T16:46:59;41.55;;;15.32;;
23884;SDS011;12123;53.088;7.392;2022-11-24T16:49:27;32.72;;;13.50;;
23884;SDS011;12123;53.088;7.392;2022-11-24T16:51:54;25.75;;;12.73;;
23884;SDS011;12123;53.088;7.392;2022-11-24T16:54:21;28.88;;;12.52;;
23884;SDS011;12123;53.088;7.392;2022-11-24T16:56:48;21.20;;;11.18;;
23884;SDS011;12123;53.088;7.392;2022-11-24T16:59:15;24.98;;;11.60;;
23884;SDS011;12123;53.088;7.392;2022-11-24T17:01:43;28.95;;;11.52;;
23884;SDS011;12123;53.088;7.392;2022-11-24T17:04:11;27.30;;;12.55;;
23884;SDS011;12123;53.088;7.392;2022-11-24T17:06:39;22.58;;;11.23;;
23884;SDS011;12123;53.088;7.392;2022-11-24T17:09:06;26.42;;;11.25;;